Air Resources Laboratory banner image
Air Resources Laboratory web site National Oceanic and Atmospheric Administration (NOAA)

mi metar


KSAW 131647Z 07009KT 3/4SM -SN OVC006 M10/M12 A2957=